Terminal Aerodrome Forecast
Issued by NWS Shreveport, LA

Current Version | Previous Version | Text Only | Print | Product List | Glossary On
Versions: 1 2 3 4 5 6 7 8 9 10 11 12 13 14
000
FTUS44 KSHV 031723
TAFLFK
TAF
KLFK 031723Z 0318/0418 20006KT P6SM FEW050
     FM040100 15004KT P6SM FEW070=

USA.gov is the U.S. government's official web portal to all federal, state and local government web resources and services.